CDT,Max TemperatureF,Mean TemperatureF,Min TemperatureF,Max Dew PointF,MeanDew PointF,Min DewpointF,Max Humidity, Mean Humidity, Min Humidity, Max Sea Level PressureIn, Mean Sea Level PressureIn, Min Sea Level PressureIn, Max VisibilityMiles, Mean VisibilityMiles, Min VisibilityMiles, Max Wind SpeedMPH, Mean Wind SpeedMPH, Max Gust SpeedMPH,PrecipitationIn, CloudCover, Events, WindDirDegrees
2013-8-1,93,78,62,60,56,51,82,56,24,30.24,30.11,29.97,10,10,5,36,12,58,0.09,1,Rain-Thunderstorm,181
2013-8-2,90,74,57,64,54,45,87,55,21,30.11,30.02,29.99,10,10,7,18,7,31,0.01,1,Rain-Thunderstorm,153
2013-8-3,76,70,63,66,64,62,95,88,68,30.25,30.17,30.10,10,7,0,29,13,36,0.00,6,Rain,141
2013-8-4,90,73,56,63,54,38,96,63,19,30.23,30.14,30.07,10,8,0,16,8,26,0.00,3,Fog-Rain-Thunderstorm,190
2013-8-5,87,72,57,62,52,33,81,51,15,30.13,30.07,30.01,10,10,10,14,7,18,0.00,1,,305
2013-8-6,88,74,59,56,50,42,82,51,21,30.10,30.03,29.99,10,10,10,21,9,31,0.00,0,Rain-Thunderstorm,298
2013-8-7,78,66,53,56,52,48,89,63,34,30.15,30.11,30.05,10,10,10,25,8,34,0.00,0,,160
2013-8-8,79,66,54,59,55,50,96,68,38,30.19,30.13,30.08,10,9,1,16,6,25,0.01,4,Rain,167
2013-8-9,83,67,51,55,47,34,88,50,18,30.23,30.19,30.16,10,10,10,20,9,26,0.00,0,,189
2013-8-10,87,70,53,57,48,41,86,51,20,30.25,30.19,30.11,10,10,1,20,6,25,0.55,1,Rain-Thunderstorm,174
2013-8-11,81,72,62,58,51,42,75,51,26,30.22,30.19,30.15,10,10,10,18,7,24,0.00,2,Rain-Thunderstorm,87
2013-8-12,81,68,55,62,55,42,95,68,34,30.22,30.19,30.16,10,10,7,16,4,26,0.01,2,Rain-Thunderstorm,190
2013-8-13,82,66,51,56,51,44,93,67,27,30.26,30.22,30.17,10,10,4,21,7,26,0.28,1,Rain-Thunderstorm,193
2013-8-14,82,68,53,57,51,45,92,66,26,30.30,30.19,30.10,10,10,5,38,7,45,0.13,2,Rain-Thunderstorm,223
2013-8-15,82,67,52,55,51,43,90,59,26,30.20,30.15,30.11,10,10,10,10,6,12,0.00,0,Thunderstorm,141
2013-8-16,81,67,53,62,57,52,94,75,39,30.21,30.18,30.15,10,9,5,13,6,16,0.00,0,,157
2013-8-17,86,72,59,65,60,55,97,72,34,30.20,30.13,30.07,10,7,0,17,9,22,0.00,2,Fog-Rain,163
2013-8-18,88,74,59,65,61,50,96,73,34,30.19,30.10,30.06,10,7,0,17,8,31,0.01,3,Fog-Rain-Thunderstorm,172
2013-8-19,93,75,57,62,51,41,90,48,16,30.15,30.09,30.04,10,10,7,16,8,22,0.00,0,,186
2013-8-20,98,78,59,55,47,34,74,38,11,30.06,30.03,29.99,10,10,10,21,9,25,0.00,0,,201
2013-8-21,90,76,63,57,50,44,67,41,20,30.17,30.10,30.03,10,10,10,20,9,25,0.00,0,Rain,358
2013-8-22,86,72,57,62,54,47,92,58,27,30.25,30.19,30.14,10,10,10,17,7,22,0.00,0,,62
2013-8-23,91,76,61,63,55,44,94,55,20,30.19,30.06,29.95,10,9,3,21,10,24,0.00,1,,177
2013-8-24,94,74,55,52,46,37,78,40,13,30.08,30.04,30.01,10,10,10,17,7,22,0.00,1,Rain,285
2013-8-25,91,76,62,60,49,44,71,39,19,30.16,30.12,30.08,10,10,7,30,5,37,0.06,1,Rain,264
2013-8-26,93,76,59,60,53,46,89,49,21,30.18,30.13,30.08,10,10,10,15,6,25,0.00,1,,324
2013-8-27,96,81,66,57,52,46,66,40,18,30.16,30.11,30.04,10,10,10,15,7,21,0.00,1,Thunderstorm,324
2013-8-28,95,78,62,57,45,34,72,36,12,30.15,30.11,30.07,10,10,10,15,6,23,0.00,0,,144
2013-8-29,95,78,60,49,45,40,64,35,15,30.18,30.14,30.11,10,10,10,16,7,20,0.00,0,,333
2013-8-30,94,78,62,63,55,48,79,53,22,30.21,30.16,30.08,10,10,7,26,6,43,0.07,1,Rain-Thunderstorm,163
2013-8-31,94,78,61,59,51,36,85,49,14,30.14,30.09,30.04,10,10,10,18,10,25,0.00,0,,350